Portada
METAR-TAF:

METAR-TAF

Aeropuertos :

Samos, Grecia

latitud: 37-42N, longitud: 026-55E, altitud: 2 m

Observación

El informe se hizo hace 35 minutos, a las 12:20 UTC
Viento 13 kt del norte, variando entre norte-noroeste y norte-noreste
Temperatura 14°C
Humedad 47%
Presión 1022 hPa
Visibilidad 10 km o más
sin nubes por debajo de 1500 m y sin presencia de cumulonimbus.

METAR: LGSM 061220Z 01013KT 330V030 CAVOK 14/03 Q1022

Hora: 14:55 (12:55 UTC)

Pronóstico

El informe se hizo hace 1 hora y 55 minutos, a las 11:00 UTC
Pronóstico válido del 06 a las 12 UTC al 06 a las 21 UTC
Viento 15 kt del norte-noreste
Visibilidad 10 km o más
Escasas nubes a una altura de 2000 ft

TAF: LGSM 061100Z 0612/0621 02015KT 9999 FEW020

Observaciones y pronósticos meteorológicos de más de 4000 aeropuertos (mensajes METAR y TAF).

Los puntos amarillos y rojos representan las estaciones disponibles.

Ponga el ratón en el punto deseado para ver el nombre de la estación.

Haga clic para ver las observaciones y los pronósticos meteorológicos.

Para cambiar el mapa : haga clic en los botones verdes con una cruz de color negro para hacer un zoom, en el botón verde con un guión para alejar o en las flechas verdes para mapas adyacentes.


METAR-TAF: